Terminal Aerodrome Forecast
Issued by NWS

Home | Current Version | Previous Version | Text Only | Print | Product List | Glossary On
Versions: 1 2 3 4 5 6 7 8 9 10 11 12 13 14 15 16 17 18 19 20 21 22 23 24 25 26 27 28
160
FTAK31 PANC 121730
TAFAEN
TAF
PAEN 121730Z 1218/1318 02015KT P6SM VCSH OVC050
     FM130000 02013KT P6SM SCT040 BKN070
     FM130900 02010KT P6SM VCSH BKN025 OVC040=

USA.gov is the U.S. government's official web portal to all federal, state and local government web resources and services.